Time;durP1;ratioP1;P1;durP2;ratioP2;P2;SDS_P1;SDS_P2;PMS_P1;PMS_P2;Temp;Humidity;BMP_temperature;BMP_pressure;BME280_temperature;BME280_humidity;BME280_pressure;Samples;Min_cycle;Max_cycle;Signal;HPM_P1;HPM_P2
2022/11/07 00:00:14;;;;;;;5.32;2.50;;;11.90;61.70;;;;;;5035659;28;20395;-77
2022/11/07 00:02:40;;;;;;;6.32;2.90;;;11.90;62.40;;;;;;5016266;28;20767;-77
2022/11/07 00:05:08;;;;;;;5.33;2.90;;;11.90;63.20;;;;;;5030915;28;20869;-77
2022/11/07 00:07:33;;;;;;;6.23;3.10;;;11.90;62.70;;;;;;5031689;28;20448;-77
2022/11/07 00:09:59;;;;;;;3.90;2.50;;;11.80;63.30;;;;;;5031585;28;20457;-77
2022/11/07 00:12:24;;;;;;;6.33;3.00;;;11.80;64.40;;;;;;5013657;28;20790;-77
2022/11/07 00:14:50;;;;;;;6.40;2.80;;;11.80;64.40;;;;;;5031687;28;20496;-77
2022/11/07 00:17:17;;;;;;;3.05;2.00;;;11.90;63.90;;;;;;5030944;28;20394;-77
2022/11/07 00:19:43;;;;;;;4.75;2.30;;;11.90;63.90;;;;;;5031587;23;20940;-76
2022/11/07 00:22:08;;;;;;;4.50;2.80;;;11.90;64.10;;;;;;5063489;28;20405;-75
2022/11/07 00:24:34;;;;;;;4.37;2.40;;;12.00;63.60;;;;;;5052150;28;20469;-73
2022/11/07 00:26:59;;;;;;;4.40;2.70;;;12.20;62.00;;;;;;5069911;28;20390;-72
2022/11/07 00:29:25;;;;;;;4.13;2.40;;;12.20;62.50;;;;;;5065458;28;20438;-73
2022/11/07 00:31:50;;;;;;;5.03;2.43;;;12.10;62.70;;;;;;5042936;28;20435;-75
2022/11/07 00:34:16;;;;;;;5.40;2.40;;;12.10;63.60;;;;;;5040270;28;20392;-72
2022/11/07 00:36:42;;;;;;;3.72;2.00;;;12.10;64.70;;;;;;5041745;28;20391;-71
2022/11/07 00:39:09;;;;;;;7.67;2.70;;;12.20;62.80;;;;;;5022938;28;20425;-73
2022/11/07 00:41:35;;;;;;;5.95;2.20;;;12.30;60.80;;;;;;5021667;28;21010;-74
2022/11/07 00:44:01;;;;;;;6.10;2.20;;;12.40;60.50;;;;;;5043840;28;20390;-72
2022/11/07 00:46:26;;;;;;;5.47;2.30;;;12.30;61.70;;;;;;5043937;28;20383;-76
2022/11/07 00:48:52;;;;;;;4.47;2.30;;;12.10;62.80;;;;;;5025209;28;20405;-71
2022/11/07 00:51:21;;;;;;;5.23;2.30;;;12.10;63.10;;;;;;5041843;28;20925;-73
2022/11/07 00:53:47;;;;;;;4.13;2.38;;;12.10;62.30;;;;;;5042055;28;20463;-72
2022/11/07 00:56:15;;;;;;;3.47;2.30;;;12.00;62.10;;;;;;5023317;28;20455;-72
2022/11/07 00:58:41;;;;;;;4.95;2.60;;;11.90;63.20;;;;;;5039523;28;20387;-73
2022/11/07 01:01:09;;;;;;;7.17;2.40;;;11.80;63.60;;;;;;5040225;28;20930;-72
2022/11/07 01:06:38;;;;;;;7.68;2.70;;;11.70;65.20;;;;;;4999678;28;20470;-74
2022/11/07 01:09:10;;;;;;;6.28;2.60;;;11.60;65.90;;;;;;5033900;28;20383;-74
2022/11/07 01:11:37;;;;;;;4.88;2.55;;;11.50;65.90;;;;;;5023335;28;20395;-74
2022/11/07 01:14:03;;;;;;;6.50;2.90;;;11.20;68.90;;;;;;5021841;28;20418;-73
2022/11/07 01:16:30;;;;;;;3.78;2.47;;;11.20;70.60;;;;;;5039380;28;20417;-72
2022/11/07 01:18:56;;;;;;;7.82;2.70;;;11.00;72.50;;;;;;5039977;28;20871;-75
2022/11/07 01:21:22;;;;;;;5.00;2.60;;;10.90;74.10;;;;;;5041189;28;20435;-74
2022/11/07 01:23:48;;;;;;;5.33;2.50;;;10.90;76.00;;;;;;5043141;28;20904;-76
2022/11/07 01:26:14;;;;;;;4.70;2.40;;;10.70;77.90;;;;;;5045517;28;20387;-73
2022/11/07 01:28:40;;;;;;;4.70;2.28;;;10.60;80.40;;;;;;5027404;28;20383;-76
2022/11/07 01:31:08;;;;;;;3.92;1.83;;;10.60;81.00;;;;;;5031361;28;20397;-72
2022/11/07 01:33:34;;;;;;;2.80;1.85;;;10.50;82.50;;;;;;5034281;28;20395;-72
2022/11/07 01:36:07;;;;;;;2.50;2.30;;;10.40;84.10;;;;;;5049481;28;20418;-73
2022/11/07 01:38:38;;;;;;;2.50;1.90;;;10.30;86.50;;;;;;5046423;28;20474;-75
2022/11/07 01:41:20;;;;;;;3.87;2.17;;;10.30;88.80;;;;;;5044004;28;20467;-73
2022/11/07 01:44:07;;;;;;;6.30;2.20;;;10.20;89.80;;;;;;5045123;28;20470;-73
2022/11/07 01:46:41;;;;;;;4.13;2.10;;;10.10;91.20;;;;;;5044244;28;20383;-75
2022/11/07 01:49:26;;;;;;;5.40;2.20;;;10.10;92.70;;;;;;5043034;28;20391;-76
2022/11/07 01:51:58;;;;;;;5.32;1.75;;;10.20;93.90;;;;;;5043993;28;20383;-75
2022/11/07 01:54:29;;;;;;;5.03;1.95;;;10.20;92.60;;;;;;5044007;28;20387;-73
2022/11/07 01:56:57;;;;;;;5.00;2.10;;;10.10;92.90;;;;;;5045095;28;20387;-73
2022/11/07 01:59:27;;;;;;;6.05;2.20;;;10.00;95.20;;;;;;5043572;28;20387;-75
2022/11/07 02:01:54;;;;;;;7.90;2.90;;;9.90;96.60;;;;;;5043750;28;20760;-76
2022/11/07 02:04:23;;;;;;;6.47;2.13;;;9.90;98.30;;;;;;5050590;28;20372;-75
2022/11/07 02:07:03;;;;;;;5.50;2.38;;;9.80;99.70;;;;;;5050476;28;20443;-74
2022/11/07 02:09:29;;;;;;;4.80;2.20;;;9.80;99.90;;;;;;5047073;28;20421;-73
2022/11/07 02:11:59;;;;;;;6.97;2.20;;;9.80;99.90;;;;;;5035245;28;20391;-72
2022/11/07 02:14:26;;;;;;;6.25;2.40;;;9.80;99.90;;;;;;5051746;28;20451;-73
2022/11/07 02:16:52;;;;;;;5.65;2.42;;;9.80;99.90;;;;;;5033611;28;20395;-72
2022/11/07 02:19:49;;;;;;;5.82;2.50;;;9.90;99.90;;;;;;5044320;28;20395;-73
2022/11/07 02:22:33;;;;;;;4.90;2.03;;;10.20;99.30;;;;;;5042353;28;20442;-75
2022/11/07 02:25:02;;;;;;;5.70;2.30;;;10.30;97.20;;;;;;5042603;28;20371;-73
2022/11/07 02:27:29;;;;;;;7.35;2.15;;;10.30;97.40;;;;;;5043184;28;20383;-74
2022/11/07 02:30:12;;;;;;;7.57;2.40;;;10.30;95.90;;;;;;5043707;28;20394;-73
2022/11/07 02:32:38;;;;;;;3.53;2.17;;;10.30;95.80;;;;;;5043517;28;20836;-73
2022/11/07 02:35:25;;;;;;;4.18;2.00;;;10.20;96.60;;;;;;5026462;28;20387;-74
2022/11/07 02:37:51;;;;;;;9.65;2.97;;;10.20;97.40;;;;;;5025754;28;20411;-73
2022/11/07 02:40:17;;;;;;;6.10;2.30;;;10.10;98.10;;;;;;5042261;28;20449;-74
2022/11/07 02:42:42;;;;;;;7.70;2.53;;;10.20;97.30;;;;;;5044278;28;20539;-73
2022/11/07 02:45:12;;;;;;;6.60;2.27;;;10.20;96.90;;;;;;5042750;28;20390;-74
2022/11/07 02:47:38;;;;;;;5.38;2.00;;;10.20;97.20;;;;;;5043214;28;20475;-73
2022/11/07 02:50:10;;;;;;;6.70;2.10;;;10.30;95.70;;;;;;5041614;28;20422;-74
2022/11/07 02:52:35;;;;;;;6.85;2.50;;;10.30;95.80;;;;;;5041459;28;20387;-73
2022/11/07 02:55:01;;;;;;;6.35;2.63;;;10.40;96.30;;;;;;5041298;28;20387;-72
2022/11/07 02:57:27;;;;;;;5.28;2.20;;;10.40;93.40;;;;;;5041932;28;20406;-74
2022/11/07 02:59:52;;;;;;;3.97;2.10;;;10.20;94.50;;;;;;5041737;28;20892;-73
2022/11/07 03:02:18;;;;;;;5.20;2.10;;;10.10;95.70;;;;;;5041817;28;20411;-73
2022/11/07 03:04:43;;;;;;;4.37;2.07;;;10.00;98.30;;;;;;5043586;28;20418;-72
2022/11/07 03:07:09;;;;;;;3.87;2.40;;;9.90;99.70;;;;;;5026229;28;20398;-73
2022/11/07 03:09:34;;;;;;;6.90;2.17;;;9.80;99.90;;;;;;5024028;28;20387;-74
2022/11/07 03:12:00;;;;;;;8.93;2.40;;;9.70;99.90;;;;;;5042080;28;20456;-73
2022/11/07 03:14:25;;;;;;;8.27;2.10;;;9.60;99.90;;;;;;5042741;28;20477;-73
2022/11/07 03:16:51;;;;;;;7.10;2.20;;;9.50;99.90;;;;;;5042528;28;20871;-74
2022/11/07 03:19:16;;;;;;;6.53;2.40;;;9.40;99.90;;;;;;5042574;28;20474;-74
2022/11/07 03:21:42;;;;;;;4.18;2.20;;;9.40;99.90;;;;;;5042350;28;20447;-74
2022/11/07 03:24:07;;;;;;;4.40;2.10;;;9.40;99.90;;;;;;5042630;28;20391;-74
2022/11/07 03:26:33;;;;;;;5.30;1.90;;;9.30;99.90;;;;;;5042849;28;20474;-73
2022/11/07 03:28:58;;;;;;;3.60;2.37;;;9.30;99.90;;;;;;5042809;28;20410;-73
2022/11/07 03:31:24;;;;;;;3.43;2.00;;;9.20;99.90;;;;;;5041883;28;20429;-73
2022/11/07 03:33:50;;;;;;;7.63;2.30;;;9.30;99.90;;;;;;5043048;28;20394;-71
2022/11/07 03:36:16;;;;;;;8.67;2.93;;;9.20;99.90;;;;;;5024133;28;20391;-73
2022/11/07 03:38:41;;;;;;;5.50;2.50;;;9.20;99.90;;;;;;5024198;28;20410;-75
2022/11/07 03:41:07;;;;;;;5.17;2.30;;;9.30;99.90;;;;;;5023858;28;20461;-73
2022/11/07 03:43:32;;;;;;;6.83;2.87;;;9.30;99.90;;;;;;5041904;28;20871;-74
2022/11/07 03:45:58;;;;;;;6.33;2.90;;;9.20;99.90;;;;;;5040263;28;20390;-73
2022/11/07 03:48:24;;;;;;;8.85;2.60;;;9.30;99.90;;;;;;5040254;28;20391;-74
2022/11/07 03:50:49;;;;;;;8.38;2.70;;;9.20;99.90;;;;;;5041797;28;20387;-72
2022/11/07 03:53:15;;;;;;;5.60;2.77;;;9.10;99.90;;;;;;5034406;28;20482;-71
2022/11/07 03:55:46;;;;;;;6.20;3.20;;;9.10;99.90;;;;;;5051363;28;20391;-71
2022/11/07 03:58:11;;;;;;;10.13;3.42;;;9.10;99.90;;;;;;5046157;28;20387;-75
2022/11/07 04:00:37;;;;;;;5.77;2.90;;;9.10;99.90;;;;;;5042389;28;20438;-73
2022/11/07 04:03:03;;;;;;;7.10;2.83;;;9.20;99.90;;;;;;5041674;28;20391;-74
2022/11/07 04:05:29;;;;;;;4.97;2.70;;;9.20;99.90;;;;;;5042522;28;20414;-74
2022/11/07 04:07:54;;;;;;;5.88;3.10;;;9.20;99.90;;;;;;5042958;28;20386;-75
2022/11/07 04:10:20;;;;;;;6.55;3.00;;;9.30;99.90;;;;;;5024001;28;20998;-76
2022/11/07 04:18:13;;;;;;;6.45;3.38;;;9.20;99.90;;;;;;5039633;28;20406;-76
2022/11/07 04:20:39;;;;;;;8.07;3.50;;;9.20;99.90;;;;;;5040804;28;20399;-73
2022/11/07 04:23:04;;;;;;;10.50;3.23;;;9.10;99.90;;;;;;5040391;28;20380;-74
2022/11/07 04:28:16;;;;;;;7.82;3.58;;;9.10;99.90;;;;;;5041067;28;20383;-73
2022/11/07 04:30:42;;;;;;;8.18;3.67;;;9.10;99.90;;;;;;5023321;28;20402;-72
2022/11/07 04:33:08;;;;;;;9.45;3.78;;;9.00;99.90;;;;;;5039884;28;20796;-73
2022/11/07 04:35:34;;;;;;;7.20;3.20;;;9.00;99.90;;;;;;5039886;28;20418;-73
2022/11/07 04:38:00;;;;;;;8.70;3.53;;;9.00;99.90;;;;;;5043961;28;20808;-74
2022/11/07 04:40:27;;;;;;;9.73;3.58;;;9.00;99.90;;;;;;5042854;28;20387;-74
2022/11/07 04:42:53;;;;;;;8.20;3.30;;;9.00;99.90;;;;;;5041513;28;20417;-75
2022/11/07 04:45:18;;;;;;;10.88;3.80;;;9.00;99.90;;;;;;5041215;28;20462;-74
2022/11/07 04:47:44;;;;;;;5.78;3.38;;;9.00;99.90;;;;;;5039179;28;20423;-74
2022/11/07 04:50:13;;;;;;;8.63;3.50;;;9.00;99.90;;;;;;5039469;28;20820;-73
2022/11/07 04:52:38;;;;;;;9.80;3.58;;;8.90;99.90;;;;;;5039714;28;20390;-74
2022/11/07 04:55:07;;;;;;;10.00;3.80;;;9.00;99.90;;;;;;5039747;28;20387;-73
2022/11/07 04:57:32;;;;;;;8.60;3.40;;;9.00;99.90;;;;;;5038387;28;20391;-73
2022/11/07 04:59:58;;;;;;;7.37;3.60;;;9.00;99.90;;;;;;5039436;28;20394;-73
2022/11/07 05:02:24;;;;;;;9.70;4.07;;;9.00;99.90;;;;;;5037971;28;20395;-74
2022/11/07 05:04:50;;;;;;;10.82;3.65;;;9.00;99.90;;;;;;5042457;28;20383;-75
2022/11/07 05:07:17;;;;;;;9.32;3.60;;;9.00;99.90;;;;;;5045008;28;20383;-73
2022/11/07 05:09:42;;;;;;;6.68;3.65;;;9.00;99.90;;;;;;5045144;28;20379;-75
2022/11/07 05:12:08;;;;;;;8.37;3.80;;;9.00;99.90;;;;;;5027402;28;20425;-75
2022/11/07 05:14:34;;;;;;;9.00;4.20;;;9.00;99.90;;;;;;5045249;28;20477;-75
2022/11/07 05:17:02;;;;;;;10.07;4.00;;;9.00;99.90;;;;;;5045523;28;20390;-75
2022/11/07 05:19:27;;;;;;;10.77;4.20;;;9.00;99.90;;;;;;5026012;28;20410;-72
2022/11/07 05:24:38;;;;;;;17.52;4.70;;;9.00;99.90;;;;;;5042359;28;20929;-73
2022/11/07 05:27:04;;;;;;;7.32;3.83;;;9.00;99.90;;;;;;5041810;28;20391;-74
2022/11/07 05:29:30;;;;;;;9.52;3.75;;;9.00;99.90;;;;;;5041526;28;20383;-74
2022/11/07 05:31:56;;;;;;;10.07;3.90;;;9.00;99.90;;;;;;5026901;28;20826;-73
2022/11/07 05:34:22;;;;;;;7.97;4.00;;;9.10;99.90;;;;;;5057548;28;20398;-70
2022/11/07 05:36:47;;;;;;;11.20;4.70;;;9.20;99.90;;;;;;5058949;28;20398;-71
2022/11/07 05:39:13;;;;;;;12.43;4.20;;;9.20;99.90;;;;;;5038066;28;20398;-72
2022/11/07 05:41:38;;;;;;;12.97;4.23;;;9.10;99.90;;;;;;5046558;28;20444;-74
2022/11/07 05:44:04;;;;;;;9.80;4.80;;;9.20;99.90;;;;;;5044906;28;20390;-73
2022/11/07 05:46:30;;;;;;;13.40;4.20;;;9.20;99.90;;;;;;5026462;28;20418;-74
2022/11/07 05:48:55;;;;;;;16.00;3.90;;;9.40;99.90;;;;;;5044929;28;20429;-73
2022/11/07 05:51:21;;;;;;;13.47;3.87;;;9.50;99.90;;;;;;5045831;28;20395;-74
2022/11/07 05:53:46;;;;;;;11.77;3.87;;;9.60;99.90;;;;;;5048669;28;20851;-74
2022/11/07 05:56:12;;;;;;;8.43;3.97;;;9.60;99.90;;;;;;5048275;28;20394;-73
2022/11/07 05:58:37;;;;;;;8.18;4.10;;;9.70;99.90;;;;;;5047825;28;20774;-73
2022/11/07 06:01:05;;;;;;;10.65;4.20;;;9.80;99.90;;;;;;5046751;28;20867;-75
2022/11/07 06:03:31;;;;;;;17.03;4.17;;;9.90;99.90;;;;;;5048703;28;20461;-73
2022/11/07 06:05:57;;;;;;;11.80;3.67;;;9.90;99.90;;;;;;5049942;28;20410;-74
2022/11/07 06:08:22;;;;;;;11.50;3.70;;;10.20;99.90;;;;;;5046959;28;20417;-74
2022/11/07 06:10:48;;;;;;;10.60;4.00;;;10.30;99.90;;;;;;5050249;28;20383;-72
2022/11/07 06:13:15;;;;;;;8.03;3.70;;;10.30;98.40;;;;;;5050074;28;20454;-73
2022/11/07 06:15:42;;;;;;;11.30;3.70;;;10.50;96.50;;;;;;5048482;28;20375;-74
2022/11/07 06:18:12;;;;;;;13.55;3.92;;;10.50;93.80;;;;;;5031604;28;20388;-73
2022/11/07 06:20:37;;;;;;;8.63;3.45;;;10.60;93.30;;;;;;5065298;23;20464;-74
2022/11/07 06:23:05;;;;;;;12.85;3.10;;;10.80;88.00;;;;;;5060719;28;20385;-73
2022/11/07 06:25:31;;;;;;;13.82;3.45;;;10.90;85.60;;;;;;5060162;28;20785;-74
2022/11/07 06:28:03;;;;;;;14.32;3.70;;;10.90;84.60;;;;;;5042384;28;20415;-74
2022/11/07 06:30:28;;;;;;;15.98;3.70;;;10.90;85.70;;;;;;5051582;28;20384;-73
2022/11/07 06:32:54;;;;;;;13.43;3.70;;;11.00;83.90;;;;;;5040794;28;20395;-74
2022/11/07 06:35:19;;;;;;;11.40;3.60;;;11.10;81.70;;;;;;5041803;28;20751;-74
2022/11/07 06:37:45;;;;;;;13.82;3.30;;;11.10;81.40;;;;;;5042377;28;20445;-74
2022/11/07 06:40:11;;;;;;;10.60;3.70;;;11.10;80.30;;;;;;5041797;28;20895;-73
2022/11/07 06:42:36;;;;;;;11.82;3.65;;;11.10;80.40;;;;;;5023847;28;20405;-75
2022/11/07 06:45:03;;;;;;;11.30;3.53;;;11.20;80.00;;;;;;5040108;28;20394;-75
2022/11/07 06:47:28;;;;;;;10.93;3.58;;;11.10;81.10;;;;;;5040130;28;20383;-75
2022/11/07 06:49:54;;;;;;;18.77;4.67;;;11.20;81.10;;;;;;5023714;28;20553;-74
2022/11/07 06:52:19;;;;;;;11.80;3.50;;;11.20;80.10;;;;;;5041196;28;20391;-74
2022/11/07 06:54:45;;;;;;;13.20;3.90;;;11.30;79.90;;;;;;5042424;28;20391;-74
2022/11/07 06:57:10;;;;;;;12.95;3.47;;;11.40;77.10;;;;;;5043079;28;20390;-75
2022/11/07 06:59:36;;;;;;;9.95;3.47;;;11.40;76.20;;;;;;5042829;28;20914;-76
2022/11/07 07:02:02;;;;;;;21.08;3.80;;;11.40;76.90;;;;;;5044125;28;20477;-76
2022/11/07 07:04:27;;;;;;;11.53;3.50;;;11.50;76.00;;;;;;5043275;28;20388;-73
2022/11/07 07:06:53;;;;;;;10.37;3.80;;;11.50;76.80;;;;;;5041545;28;20839;-73
2022/11/07 07:09:18;;;;;;;13.97;3.90;;;11.60;75.90;;;;;;5041775;28;20474;-75
2022/11/07 07:11:44;;;;;;;20.03;4.53;;;11.60;74.60;;;;;;5022136;28;20783;-74
2022/11/07 07:14:10;;;;;;;16.45;4.00;;;11.60;74.80;;;;;;5021189;28;20398;-75
2022/11/07 07:16:36;;;;;;;16.08;3.80;;;11.70;73.30;;;;;;5039932;28;20466;-76
2022/11/07 07:19:02;;;;;;;18.00;4.20;;;11.80;72.70;;;;;;5038538;28;20466;-75
2022/11/07 07:21:29;;;;;;;11.07;3.72;;;11.80;72.80;;;;;;5037143;28;20407;-74
2022/11/07 07:23:55;;;;;;;15.18;3.83;;;11.90;73.30;;;;;;5039213;28;20408;-76
2022/11/07 07:26:20;;;;;;;12.57;3.83;;;11.90;71.50;;;;;;5040203;28;20402;-75
2022/11/07 07:28:47;;;;;;;13.40;4.03;;;12.10;70.10;;;;;;5040502;28;20410;-73
2022/11/07 07:31:13;;;;;;;11.60;3.93;;;12.10;69.30;;;;;;5021714;28;20423;-74
2022/11/07 07:33:43;;;;;;;12.17;3.43;;;12.20;68.20;;;;;;5037264;28;20798;-75
2022/11/07 07:36:09;;;;;;;14.18;3.60;;;12.30;67.10;;;;;;5040184;28;20470;-75
2022/11/07 07:38:35;;;;;;;12.65;3.15;;;12.40;64.90;;;;;;5041752;28;20393;-74
2022/11/07 07:41:01;;;;;;;17.55;4.80;;;12.50;66.10;;;;;;5040376;28;20417;-76
2022/11/07 07:43:27;;;;;;;19.93;5.00;;;12.40;64.70;;;;;;5041342;28;20447;-74
2022/11/07 07:45:57;;;;;;;11.57;3.60;;;12.40;65.90;;;;;;5039426;28;20752;-73
2022/11/07 07:48:22;;;;;;;12.68;3.47;;;12.40;67.00;;;;;;5036919;28;20427;-75
2022/11/07 07:50:48;;;;;;;16.33;3.90;;;12.40;67.10;;;;;;5035309;28;20437;-76
2022/11/07 07:53:14;;;;;;;12.85;3.83;;;12.40;67.70;;;;;;5036393;28;20391;-75
2022/11/07 07:55:40;;;;;;;9.52;3.63;;;12.40;67.50;;;;;;5019738;28;20431;-74
2022/11/07 07:58:05;;;;;;;14.40;4.00;;;12.50;66.60;;;;;;5037356;28;20395;-76
2022/11/07 08:00:31;;;;;;;13.30;3.40;;;12.60;66.00;;;;;;5038437;28;20407;-73
2022/11/07 08:03:05;;;;;;;12.33;3.60;;;12.60;66.00;;;;;;5035432;28;20445;-75
2022/11/07 08:05:31;;;;;;;12.60;3.60;;;12.60;64.60;;;;;;5034449;28;20398;-73
2022/11/07 08:07:56;;;;;;;12.88;3.78;;;12.70;65.50;;;;;;5017777;28;20383;-74
2022/11/07 08:10:22;;;;;;;16.65;3.97;;;12.80;64.00;;;;;;5035760;28;20389;-77
2022/11/07 08:12:49;;;;;;;15.18;3.88;;;12.80;63.90;;;;;;5034166;28;20380;-74
2022/11/07 08:15:17;;;;;;;21.98;4.40;;;12.90;63.60;;;;;;5034396;28;20389;-73
2022/11/07 08:17:42;;;;;;;17.23;4.25;;;13.00;63.20;;;;;;5033568;28;20375;-75
2022/11/07 08:20:10;;;;;;;12.05;3.53;;;13.20;62.30;;;;;;5033858;28;20430;-75
2022/11/07 08:22:37;;;;;;;15.18;3.58;;;13.40;61.30;;;;;;5015993;28;20417;-79
2022/11/07 08:25:03;;;;;;;15.00;3.30;;;13.50;61.40;;;;;;5034111;28;20466;-75
2022/11/07 08:27:29;;;;;;;15.03;3.47;;;13.60;60.70;;;;;;5034146;28;20387;-75
2022/11/07 08:29:56;;;;;;;14.52;3.75;;;13.70;58.70;;;;;;5034928;28;20429;-76
2022/11/07 08:32:22;;;;;;;21.40;3.50;;;13.80;57.80;;;;;;5033974;28;20395;-75
2022/11/07 08:34:47;;;;;;;16.00;3.58;;;13.90;57.30;;;;;;5034846;28;20402;-76
2022/11/07 08:37:13;;;;;;;17.52;3.63;;;14.00;56.50;;;;;;5016839;28;20395;-75
2022/11/07 08:39:39;;;;;;;17.13;3.78;;;14.20;55.00;;;;;;5018183;28;21217;-76
2022/11/07 08:42:04;;;;;;;13.20;3.13;;;14.20;53.80;;;;;;5035184;28;20407;-76
2022/11/07 08:44:33;;;;;;;14.00;3.10;;;14.30;52.80;;;;;;5035676;28;20441;-76
2022/11/07 08:46:59;;;;;;;14.48;3.20;;;14.40;52.30;;;;;;5020546;28;20441;-75
2022/11/07 08:49:25;;;;;;;16.95;3.15;;;14.60;51.20;;;;;;5040836;28;20445;-74
2022/11/07 08:51:51;;;;;;;13.27;3.40;;;14.60;50.50;;;;;;5037248;28;20780;-75
2022/11/07 08:54:16;;;;;;;13.02;3.30;;;14.60;50.60;;;;;;5042901;28;20395;-75
2022/11/07 08:56:42;;;;;;;14.60;3.17;;;14.60;51.10;;;;;;5048914;28;20395;-75
2022/11/07 08:59:09;;;;;;;12.73;3.20;;;14.70;49.90;;;;;;5046865;28;20407;-75
2022/11/07 09:01:35;;;;;;;19.95;4.00;;;14.80;49.60;;;;;;5047144;28;20410;-75
2022/11/07 09:04:00;;;;;;;19.50;3.78;;;14.80;49.30;;;;;;5046771;28;20422;-75
2022/11/07 09:06:26;;;;;;;9.03;2.90;;;14.80;49.00;;;;;;5028031;28;20740;-76
2022/11/07 09:08:52;;;;;;;15.37;3.30;;;14.90;49.00;;;;;;5046098;28;20383;-76
2022/11/07 09:11:17;;;;;;;13.20;3.30;;;14.90;48.30;;;;;;5027512;28;20882;-76
2022/11/07 09:13:45;;;;;;;14.80;3.30;;;15.00;48.20;;;;;;5045778;28;20399;-77
2022/11/07 09:16:12;;;;;;;16.20;3.40;;;15.20;47.30;;;;;;5043297;28;20399;-76
2022/11/07 09:18:37;;;;;;;13.88;3.20;;;15.30;46.40;;;;;;5041911;28;20398;-77
2022/11/07 09:21:03;;;;;;;16.73;3.10;;;15.30;46.60;;;;;;5028450;28;20442;-74
2022/11/07 09:23:29;;;;;;;11.75;2.90;;;15.30;46.10;;;;;;5053097;28;20406;-73
2022/11/07 09:25:58;;;;;;;13.13;2.92;;;15.30;46.20;;;;;;5030726;28;20420;-74
2022/11/07 09:28:24;;;;;;;16.73;3.10;;;15.30;46.00;;;;;;5032306;28;20494;-76
2022/11/07 09:30:57;;;;;;;14.07;3.53;;;15.20;46.50;;;;;;5042782;28;20387;-76
2022/11/07 09:33:23;;;;;;;16.33;3.53;;;15.20;46.70;;;;;;5038656;28;20470;-76
2022/11/07 09:35:49;;;;;;;13.70;3.25;;;15.10;47.30;;;;;;5022295;28;20406;-75
2022/11/07 09:38:15;;;;;;;15.15;3.40;;;15.00;48.70;;;;;;5022599;28;20445;-76
2022/11/07 09:41:11;;;;;;;12.75;3.65;;;14.90;50.10;;;;;;5022448;28;20423;-76
2022/11/07 09:43:52;;;;;;;13.93;3.72;;;15.00;50.90;;;;;;5041997;28;20465;-76
2022/11/07 09:46:27;;;;;;;14.23;3.30;;;15.00;52.50;;;;;;5042995;28;20411;-74
2022/11/07 09:48:59;;;;;;;11.05;2.80;;;15.00;56.20;;;;;;5044522;28;20383;-76
2022/11/07 09:51:34;;;;;;;13.10;2.90;;;14.90;59.80;;;;;;5049799;28;20426;-74
2022/11/07 09:54:24;;;;;;;17.30;3.60;;;14.70;64.00;;;;;;5050412;28;20421;-76
2022/11/07 09:56:50;;;;;;;13.85;3.60;;;14.60;66.00;;;;;;5050491;28;20371;-76
2022/11/07 09:59:27;;;;;;;9.95;3.20;;;14.40;70.40;;;;;;5031118;28;20403;-73
2022/11/07 10:01:53;;;;;;;10.93;2.90;;;14.20;73.40;;;;;;5049163;28;20403;-77
2022/11/07 10:04:21;;;;;;;11.48;3.22;;;14.30;75.10;;;;;;5049405;28;20462;-73
2022/11/07 10:07:16;;;;;;;13.43;3.42;;;14.30;76.30;;;;;;5048052;28;20391;-74
2022/11/07 10:10:21;;;;;;;12.70;3.70;;;14.20;77.60;;;;;;5030827;28;20423;-75
2022/11/07 10:13:00;;;;;;;14.82;4.15;;;14.30;78.40;;;;;;5033901;28;20409;-77
2022/11/07 10:15:53;;;;;;;12.70;4.03;;;14.20;80.70;;;;;;5048174;28;20387;-76
2022/11/07 10:18:27;;;;;;;11.10;4.10;;;14.30;79.90;;;;;;5050992;28;20455;-76
2022/11/07 10:21:16;;;;;;;17.38;4.30;;;14.50;77.50;;;;;;5028958;28;20399;-76
2022/11/07 10:23:52;;;;;;;14.82;3.95;;;14.50;75.70;;;;;;5031842;28;20394;-77
2022/11/07 10:26:21;;;;;;;15.40;3.97;;;14.60;75.40;;;;;;5050047;28;20391;-76
2022/11/07 10:28:55;;;;;;;14.00;4.00;;;14.70;73.00;;;;;;5033743;28;20391;-76
2022/11/07 10:31:22;;;;;;;12.38;3.50;;;14.90;72.70;;;;;;5051191;28;20398;-75
2022/11/07 10:34:03;;;;;;;17.30;4.60;;;14.90;70.60;;;;;;5031292;28;20402;-75
2022/11/07 10:36:31;;;;;;;14.25;3.58;;;14.80;71.60;;;;;;5048095;28;20860;-76
2022/11/07 10:38:57;;;;;;;13.40;4.40;;;14.70;72.60;;;;;;5029309;28;20413;-76
2022/11/07 10:41:28;;;;;;;16.90;4.77;;;15.00;71.00;;;;;;5030456;28;20414;-73
2022/11/07 10:44:12;;;;;;;15.98;4.53;;;15.00;68.20;;;;;;5048381;28;20391;-76
2022/11/07 10:46:40;;;;;;;17.25;4.35;;;15.00;68.60;;;;;;5047843;28;20398;-76
2022/11/07 10:49:19;;;;;;;18.25;4.78;;;15.10;68.80;;;;;;5048843;28;20384;-76
2022/11/07 10:51:45;;;;;;;16.98;4.40;;;15.30;66.70;;;;;;5047811;28;20426;-74
2022/11/07 10:54:30;;;;;;;17.58;4.55;;;15.40;61.10;;;;;;5031158;28;20391;-75
2022/11/07 10:57:08;;;;;;;10.98;4.00;;;15.50;60.70;;;;;;5031348;28;20402;-76
2022/11/07 10:59:37;;;;;;;13.38;4.05;;;15.60;59.70;;;;;;5031797;28;20393;-76
2022/11/07 11:02:22;;;;;;;11.48;3.92;;;15.70;58.30;;;;;;5049059;28;20466;-74
2022/11/07 11:04:50;;;;;;;16.00;3.42;;;16.00;54.90;;;;;;5048842;28;20391;-75
2022/11/07 11:07:15;;;;;;;13.43;3.60;;;16.10;52.30;;;;;;5029604;28;20387;-74
2022/11/07 11:09:54;;;;;;;18.23;3.93;;;16.00;52.60;;;;;;5029972;28;20392;-75
2022/11/07 11:12:32;;;;;;;11.90;3.90;;;16.10;53.40;;;;;;5030603;28;20421;-76
2022/11/07 11:15:10;;;;;;;17.33;4.18;;;16.30;50.60;;;;;;5014402;28;20474;-75
2022/11/07 11:17:36;;;;;;;15.47;3.80;;;16.20;51.00;;;;;;5049247;28;20441;-74
2022/11/07 11:20:03;;;;;;;13.15;3.70;;;16.20;51.80;;;;;;5047262;28;20399;-76
2022/11/07 11:22:29;;;;;;;13.77;4.00;;;16.30;50.80;;;;;;5048708;28;20769;-75
2022/11/07 11:25:13;;;;;;;13.52;4.03;;;16.30;49.60;;;;;;5049090;28;20390;-75
2022/11/07 11:27:39;;;;;;;15.27;4.13;;;16.30;49.20;;;;;;5048752;28;20414;-76
2022/11/07 11:30:12;;;;;;;15.80;4.07;;;16.30;48.40;;;;;;5047615;28;20385;-75
2022/11/07 11:32:48;;;;;;;12.50;3.78;;;16.50;48.60;;;;;;5046676;28;20386;-77
2022/11/07 11:35:35;;;;;;;18.58;3.47;;;16.40;47.60;;;;;;5046227;28;20467;-75
2022/11/07 11:38:19;;;;;;;17.02;4.50;;;16.40;47.00;;;;;;5045538;28;20436;-76
2022/11/07 11:40:58;;;;;;;17.13;4.05;;;16.20;47.40;;;;;;5045942;28;20382;-76
2022/11/07 11:43:29;;;;;;;20.97;4.10;;;16.00;48.10;;;;;;5046598;28;20477;-74
2022/11/07 11:46:25;;;;;;;17.00;4.20;;;15.90;49.10;;;;;;5030757;28;20391;-75
2022/11/07 11:49:03;;;;;;;18.73;4.68;;;15.80;51.00;;;;;;5029239;28;20557;-74
2022/11/07 11:51:55;;;;;;;18.10;4.45;;;15.70;49.50;;;;;;5047231;28;20417;-75
2022/11/07 11:54:21;;;;;;;12.18;3.13;;;15.70;50.10;;;;;;5046940;28;20874;-76
2022/11/07 11:56:51;;;;;;;16.98;3.72;;;15.70;50.30;;;;;;5029912;28;20391;-76
2022/11/07 11:59:34;;;;;;;14.15;3.72;;;15.90;49.60;;;;;;5048618;28;20470;-76
2022/11/07 12:02:21;;;;;;;15.52;3.80;;;15.90;48.80;;;;;;5048907;28;20466;-79
2022/11/07 12:05:13;;;;;;;16.52;3.10;;;16.00;48.70;;;;;;5048720;28;20379;-75
2022/11/07 12:08:00;;;;;;;18.13;3.88;;;16.30;44.30;;;;;;5047322;28;20415;-75
2022/11/07 12:10:34;;;;;;;11.57;3.03;;;16.50;41.90;;;;;;5046396;28;20368;-77
2022/11/07 12:13:25;;;;;;;10.50;3.08;;;16.60;41.10;;;;;;5045431;28;20456;-76
2022/11/07 12:16:05;;;;;;;11.88;3.03;;;16.60;41.20;;;;;;5045734;28;20379;-76
2022/11/07 12:19:03;;;;;;;12.70;3.13;;;16.70;39.30;;;;;;5046712;28;20401;-74
2022/11/07 12:21:35;;;;;;;12.73;2.80;;;16.80;39.40;;;;;;5035294;23;20853;-72
2022/11/07 12:24:31;;;;;;;15.25;2.90;;;16.80;39.80;;;;;;5012819;28;20392;-71
2022/11/07 12:27:15;;;;;;;13.18;3.10;;;16.90;39.80;;;;;;5012638;28;20431;-72
2022/11/07 12:30:08;;;;;;;13.95;3.03;;;16.80;38.70;;;;;;5012489;28;20719;-72
2022/11/07 12:33:06;;;;;;;10.13;3.00;;;16.80;39.60;;;;;;4991618;28;20386;-74
2022/11/07 12:36:05;;;;;;;10.10;3.00;;;16.80;39.00;;;;;;4991416;28;20386;-73
2022/11/07 12:38:52;;;;;;;11.20;2.97;;;16.80;39.40;;;;;;4967744;28;20394;-73
2022/11/07 12:41:22;;;;;;;10.00;3.00;;;16.80;38.70;;;;;;4990199;28;20415;-72
2022/11/07 12:43:57;;;;;;;11.40;2.80;;;16.70;38.50;;;;;;4972647;28;20815;-72
2022/11/07 12:46:41;;;;;;;10.47;2.70;;;16.70;39.30;;;;;;4989840;28;20441;-73
2022/11/07 12:49:12;;;;;;;14.63;3.30;;;16.80;38.50;;;;;;4990357;28;20448;-71
2022/11/07 12:51:47;;;;;;;11.02;2.90;;;16.80;37.80;;;;;;4970242;28;20464;-72
2022/11/07 12:54:21;;;;;;;9.05;2.67;;;16.90;37.40;;;;;;4973060;28;20842;-74
2022/11/07 12:56:48;;;;;;;10.10;2.83;;;16.90;37.80;;;;;;4990112;28;20560;-71
2022/11/07 12:59:22;;;;;;;12.38;2.85;;;16.90;36.80;;;;;;4990506;28;20456;-72
2022/11/07 13:01:58;;;;;;;6.90;2.50;;;16.70;37.50;;;;;;4972182;28;20461;-71
2022/11/07 13:04:33;;;;;;;14.68;3.20;;;16.80;37.40;;;;;;4989944;28;20437;-72
2022/11/07 13:07:17;;;;;;;9.30;2.53;;;16.90;37.30;;;;;;4989465;28;20399;-74
2022/11/07 13:09:53;;;;;;;11.15;2.70;;;17.00;36.50;;;;;;4968391;28;20516;-72